Pagrindinis puslapis
METAR-TAF:

METAR-TAF

Oro uostai :

San Chuanas, Puerto Rikas, Jungtinės Amerikos Valstijos

platuma: 18-27-24N, ilguma: 066-05-54W, Aukštis: 3 m

Dabartinis oras

Ataskaita buvo paskelbta 3 valandos ir 4 minutes, ne 22:45 UTC
Vėjas 7 kt iš Rytų
Temperatūra 27°C
Drėgmė 79%
Slėgis 1014 hPa
Matomumas: 16.1 km
Išsisklaidę debesys ne aukštis 4500 ft

METAR: TJIG 282245Z 08007KT 10SM SCT045 27/23 A2995

Laikas: 21:49 (01:49 UTC)


TAF: trūkstamas

Orai ataskaitas ir orų prognozės (METAR, TAF).

turimą stotys yra geltonos ir raudonos taškus žemėlapyje.

Perkelti pele per norėdami pamatyti stoties vardą.

Tada spustelėkite, norėdami matyti oro stebėjimo ir prognozės.

Norėdami pakeisti žemėlapį: spustelėkite ant žalios mygtukų su juodo kryžiaus žemyn,; žalią mygtuką su brūkšneliu, jei norite nutolinti; arba žalių rodyklių gretimoms žemėlapius.


METAR-TAF: